sensor_id;sensor_type;location;lat;lon;timestamp;pressure;altitude;pressure_sealevel;temperature;humidity
13029;BME280;6581;42.662;23.402;2024-03-29T00:01:16;95104.91;;;15.45;40.49
13029;BME280;6581;42.662;23.402;2024-03-29T00:03:41;95106.03;;;15.44;40.12
13029;BME280;6581;42.662;23.402;2024-03-29T00:06:08;95102.88;;;15.23;40.16
13029;BME280;6581;42.662;23.402;2024-03-29T00:08:33;95103.16;;;15.22;39.94
13029;BME280;6581;42.662;23.402;2024-03-29T00:10:59;95102.16;;;15.31;39.81
13029;BME280;6581;42.662;23.402;2024-03-29T00:13:24;95100.50;;;15.17;39.57
13029;BME280;6581;42.662;23.402;2024-03-29T00:15:50;95097.53;;;15.32;38.98
13029;BME280;6581;42.662;23.402;2024-03-29T00:18:16;95103.06;;;15.27;39.21
13029;BME280;6581;42.662;23.402;2024-03-29T00:20:42;95110.44;;;15.08;39.96
13029;BME280;6581;42.662;23.402;2024-03-29T00:23:07;95113.78;;;15.37;39.30
13029;BME280;6581;42.662;23.402;2024-03-29T00:25:33;95119.50;;;15.54;38.84
13029;BME280;6581;42.662;23.402;2024-03-29T00:27:58;95125.59;;;15.65;39.11
13029;BME280;6581;42.662;23.402;2024-03-29T00:30:24;95127.16;;;15.52;39.00
13029;BME280;6581;42.662;23.402;2024-03-29T00:32:49;95137.44;;;15.55;39.08
13029;BME280;6581;42.662;23.402;2024-03-29T00:35:15;95134.88;;;15.77;39.02
13029;BME280;6581;42.662;23.402;2024-03-29T00:37:40;95127.38;;;15.56;39.83
13029;BME280;6581;42.662;23.402;2024-03-29T00:40:06;95128.81;;;15.67;40.16
13029;BME280;6581;42.662;23.402;2024-03-29T00:42:32;95132.06;;;15.69;40.06
13029;BME280;6581;42.662;23.402;2024-03-29T00:44:57;95136.88;;;15.58;39.79
13029;BME280;6581;42.662;23.402;2024-03-29T00:47:23;95129.19;;;15.60;39.79
13029;BME280;6581;42.662;23.402;2024-03-29T00:49:48;95136.28;;;15.61;41.13
13029;BME280;6581;42.662;23.402;2024-03-29T00:52:14;95129.00;;;15.57;40.94
13029;BME280;6581;42.662;23.402;2024-03-29T00:54:39;95135.25;;;15.57;40.71
13029;BME280;6581;42.662;23.402;2024-03-29T00:57:04;95142.91;;;15.55;41.10
13029;BME280;6581;42.662;23.402;2024-03-29T00:59:32;95129.69;;;15.30;41.79
13029;BME280;6581;42.662;23.402;2024-03-29T01:01:57;95139.19;;;15.32;42.04
13029;BME280;6581;42.662;23.402;2024-03-29T01:04:23;95153.34;;;15.16;41.27
13029;BME280;6581;42.662;23.402;2024-03-29T01:06:48;95155.03;;;15.12;42.10
13029;BME280;6581;42.662;23.402;2024-03-29T01:09:14;95149.59;;;14.74;42.26
13029;BME280;6581;42.662;23.402;2024-03-29T01:11:40;95152.81;;;14.39;43.33
13029;BME280;6581;42.662;23.402;2024-03-29T01:14:06;95149.88;;;14.30;43.70
13029;BME280;6581;42.662;23.402;2024-03-29T01:16:32;95157.97;;;14.59;42.59
13029;BME280;6581;42.662;23.402;2024-03-29T01:18:58;95161.63;;;14.26;43.88
13029;BME280;6581;42.662;23.402;2024-03-29T01:21:26;95161.97;;;14.43;43.11
13029;BME280;6581;42.662;23.402;2024-03-29T01:23:52;95168.75;;;14.45;43.27
13029;BME280;6581;42.662;23.402;2024-03-29T01:26:17;95171.50;;;14.64;41.83
13029;BME280;6581;42.662;23.402;2024-03-29T01:28:43;95176.16;;;14.40;42.37
13029;BME280;6581;42.662;23.402;2024-03-29T01:31:09;95175.66;;;14.33;42.46
13029;BME280;6581;42.662;23.402;2024-03-29T01:33:34;95175.00;;;14.46;42.52
13029;BME280;6581;42.662;23.402;2024-03-29T01:36:03;95172.81;;;14.48;42.48
13029;BME280;6581;42.662;23.402;2024-03-29T01:38:29;95177.66;;;14.51;42.62
13029;BME280;6581;42.662;23.402;2024-03-29T01:40:55;95180.78;;;14.63;42.04
13029;BME280;6581;42.662;23.402;2024-03-29T01:43:20;95180.25;;;14.61;42.53
13029;BME280;6581;42.662;23.402;2024-03-29T01:45:48;95178.75;;;14.50;43.01
13029;BME280;6581;42.662;23.402;2024-03-29T01:48:15;95182.50;;;14.54;42.86
13029;BME280;6581;42.662;23.402;2024-03-29T01:50:42;95184.41;;;14.54;43.21
13029;BME280;6581;42.662;23.402;2024-03-29T01:53:08;95183.72;;;14.43;43.54
13029;BME280;6581;42.662;23.402;2024-03-29T01:55:35;95198.25;;;14.57;43.10
13029;BME280;6581;42.662;23.402;2024-03-29T01:58:01;95201.94;;;14.66;42.63
13029;BME280;6581;42.662;23.402;2024-03-29T02:00:27;95198.94;;;14.44;42.72
13029;BME280;6581;42.662;23.402;2024-03-29T02:02:53;95211.34;;;14.55;43.09
13029;BME280;6581;42.662;23.402;2024-03-29T02:05:19;95215.41;;;14.34;43.72
13029;BME280;6581;42.662;23.402;2024-03-29T02:07:45;95223.97;;;14.46;42.57
13029;BME280;6581;42.662;23.402;2024-03-29T02:10:14;95223.16;;;14.45;42.93
13029;BME280;6581;42.662;23.402;2024-03-29T02:12:40;95230.66;;;14.54;43.83
13029;BME280;6581;42.662;23.402;2024-03-29T02:15:07;95242.47;;;14.44;43.41
13029;BME280;6581;42.662;23.402;2024-03-29T02:17:32;95246.50;;;14.46;42.41
13029;BME280;6581;42.662;23.402;2024-03-29T02:19:58;95244.44;;;14.62;42.70
13029;BME280;6581;42.662;23.402;2024-03-29T02:22:24;95254.50;;;14.38;42.55
13029;BME280;6581;42.662;23.402;2024-03-29T02:24:54;95255.56;;;14.42;43.33
13029;BME280;6581;42.662;23.402;2024-03-29T02:27:21;95262.44;;;14.58;42.62
13029;BME280;6581;42.662;23.402;2024-03-29T02:29:47;95267.25;;;14.66;42.05
13029;BME280;6581;42.662;23.402;2024-03-29T02:32:13;95267.00;;;14.63;43.05
13029;BME280;6581;42.662;23.402;2024-03-29T02:34:38;95270.47;;;14.68;42.57
13029;BME280;6581;42.662;23.402;2024-03-29T02:37:04;95277.47;;;14.74;43.17
13029;BME280;6581;42.662;23.402;2024-03-29T02:39:30;95293.28;;;14.72;42.24
13029;BME280;6581;42.662;23.402;2024-03-29T02:41:55;95292.34;;;14.58;42.14
13029;BME280;6581;42.662;23.402;2024-03-29T02:44:21;95291.88;;;14.51;42.80
13029;BME280;6581;42.662;23.402;2024-03-29T02:46:46;95293.16;;;14.35;43.05
13029;BME280;6581;42.662;23.402;2024-03-29T02:49:12;95297.03;;;14.24;42.38
13029;BME280;6581;42.662;23.402;2024-03-29T02:51:37;95289.38;;;13.97;43.08
13029;BME280;6581;42.662;23.402;2024-03-29T02:54:03;95297.78;;;14.00;43.95
13029;BME280;6581;42.662;23.402;2024-03-29T02:56:28;95299.06;;;14.08;43.84
13029;BME280;6581;42.662;23.402;2024-03-29T02:58:55;95304.19;;;14.43;42.31
13029;BME280;6581;42.662;23.402;2024-03-29T03:01:20;95312.00;;;14.50;42.75
13029;BME280;6581;42.662;23.402;2024-03-29T03:03:46;95297.50;;;14.31;42.93
13029;BME280;6581;42.662;23.402;2024-03-29T03:06:11;95298.84;;;14.05;43.88
13029;BME280;6581;42.662;23.402;2024-03-29T03:08:37;95304.66;;;13.93;44.29
13029;BME280;6581;42.662;23.402;2024-03-29T03:11:21;95311.38;;;14.00;43.67
13029;BME280;6581;42.662;23.402;2024-03-29T03:13:47;95322.22;;;14.06;44.37
13029;BME280;6581;42.662;23.402;2024-03-29T03:16:12;95317.34;;;14.02;43.93
13029;BME280;6581;42.662;23.402;2024-03-29T03:18:37;95313.59;;;13.93;44.32
13029;BME280;6581;42.662;23.402;2024-03-29T03:21:03;95323.00;;;13.72;44.21
13029;BME280;6581;42.662;23.402;2024-03-29T03:23:28;95339.44;;;13.52;44.78
13029;BME280;6581;42.662;23.402;2024-03-29T03:25:59;95336.88;;;13.71;44.38
13029;BME280;6581;42.662;23.402;2024-03-29T03:28:25;95331.59;;;13.50;44.81
13029;BME280;6581;42.662;23.402;2024-03-29T03:30:51;95342.72;;;13.54;44.67
13029;BME280;6581;42.662;23.402;2024-03-29T03:33:18;95350.81;;;13.59;45.52
13029;BME280;6581;42.662;23.402;2024-03-29T03:35:44;95352.28;;;13.80;45.57
13029;BME280;6581;42.662;23.402;2024-03-29T03:38:10;95351.63;;;13.93;45.37
13029;BME280;6581;42.662;23.402;2024-03-29T03:40:36;95357.66;;;13.90;44.12
13029;BME280;6581;42.662;23.402;2024-03-29T03:43:03;95370.63;;;13.65;44.99
13029;BME280;6581;42.662;23.402;2024-03-29T03:45:33;95367.00;;;13.74;45.15
13029;BME280;6581;42.662;23.402;2024-03-29T03:47:58;95374.66;;;13.67;45.52
13029;BME280;6581;42.662;23.402;2024-03-29T03:50:24;95384.16;;;13.70;45.49
13029;BME280;6581;42.662;23.402;2024-03-29T03:52:49;95369.16;;;13.77;44.91
13029;BME280;6581;42.662;23.402;2024-03-29T03:55:15;95386.53;;;13.81;44.83
13029;BME280;6581;42.662;23.402;2024-03-29T03:57:40;95384.69;;;13.72;45.19
13029;BME280;6581;42.662;23.402;2024-03-29T04:00:06;95391.97;;;13.81;45.34
13029;BME280;6581;42.662;23.402;2024-03-29T04:02:32;95391.66;;;13.83;44.40
13029;BME280;6581;42.662;23.402;2024-03-29T04:04:57;95392.03;;;13.66;44.62
13029;BME280;6581;42.662;23.402;2024-03-29T04:07:23;95395.47;;;13.38;46.07
13029;BME280;6581;42.662;23.402;2024-03-29T04:09:52;95404.13;;;13.45;45.02
13029;BME280;6581;42.662;23.402;2024-03-29T04:12:17;95418.13;;;13.62;45.32
13029;BME280;6581;42.662;23.402;2024-03-29T04:14:43;95417.13;;;13.53;44.94
13029;BME280;6581;42.662;23.402;2024-03-29T04:17:08;95414.88;;;13.65;44.78
13029;BME280;6581;42.662;23.402;2024-03-29T04:19:34;95419.97;;;13.77;44.37
13029;BME280;6581;42.662;23.402;2024-03-29T04:21:59;95425.78;;;13.60;44.35
13029;BME280;6581;42.662;23.402;2024-03-29T04:24:25;95435.25;;;13.63;44.68
13029;BME280;6581;42.662;23.402;2024-03-29T04:26:50;95431.13;;;13.75;45.11
13029;BME280;6581;42.662;23.402;2024-03-29T04:29:16;95437.06;;;13.77;45.22
13029;BME280;6581;42.662;23.402;2024-03-29T04:31:41;95443.53;;;13.86;44.89
13029;BME280;6581;42.662;23.402;2024-03-29T04:34:09;95447.94;;;13.77;44.52
13029;BME280;6581;42.662;23.402;2024-03-29T04:36:35;95451.22;;;13.74;45.58
13029;BME280;6581;42.662;23.402;2024-03-29T04:39:00;95449.13;;;13.61;44.77
13029;BME280;6581;42.662;23.402;2024-03-29T04:41:26;95446.75;;;13.44;46.35
13029;BME280;6581;42.662;23.402;2024-03-29T04:43:51;95452.44;;;13.48;45.18
13029;BME280;6581;42.662;23.402;2024-03-29T04:46:17;95469.69;;;13.72;44.66
13029;BME280;6581;42.662;23.402;2024-03-29T04:48:43;95483.78;;;13.79;44.86
13029;BME280;6581;42.662;23.402;2024-03-29T04:51:09;95479.50;;;13.68;45.23
13029;BME280;6581;42.662;23.402;2024-03-29T04:53:38;95461.53;;;13.77;44.08
13029;BME280;6581;42.662;23.402;2024-03-29T04:56:04;95484.09;;;13.78;44.36
13029;BME280;6581;42.662;23.402;2024-03-29T04:58:30;95484.03;;;13.88;44.15
13029;BME280;6581;42.662;23.402;2024-03-29T05:00:55;95486.00;;;13.72;44.92
13029;BME280;6581;42.662;23.402;2024-03-29T05:03:22;95494.75;;;13.64;45.38
13029;BME280;6581;42.662;23.402;2024-03-29T05:05:49;95482.28;;;13.53;46.31
13029;BME280;6581;42.662;23.402;2024-03-29T05:08:15;95493.72;;;13.45;45.42
13029;BME280;6581;42.662;23.402;2024-03-29T05:10:40;95492.53;;;13.66;44.99
13029;BME280;6581;42.662;23.402;2024-03-29T05:13:06;95482.75;;;13.70;44.55
13029;BME280;6581;42.662;23.402;2024-03-29T05:15:32;95498.94;;;13.90;44.62
13029;BME280;6581;42.662;23.402;2024-03-29T05:17:58;95508.16;;;13.94;44.50
13029;BME280;6581;42.662;23.402;2024-03-29T05:20:24;95504.81;;;14.13;44.19
13029;BME280;6581;42.662;23.402;2024-03-29T05:22:49;95502.75;;;14.33;44.44
13029;BME280;6581;42.662;23.402;2024-03-29T05:25:15;95497.53;;;14.47;44.52
13029;BME280;6581;42.662;23.402;2024-03-29T05:27:40;95495.53;;;14.63;44.39
13029;BME280;6581;42.662;23.402;2024-03-29T05:30:07;95501.38;;;14.75;43.82
13029;BME280;6581;42.662;23.402;2024-03-29T05:32:35;95509.78;;;14.78;43.02
13029;BME280;6581;42.662;23.402;2024-03-29T05:35:00;95503.13;;;14.94;42.28
13029;BME280;6581;42.662;23.402;2024-03-29T05:37:26;95515.56;;;15.06;41.65
13029;BME280;6581;42.662;23.402;2024-03-29T05:39:52;95510.59;;;15.13;42.36
13029;BME280;6581;42.662;23.402;2024-03-29T05:42:31;95519.47;;;15.23;42.88
13029;BME280;6581;42.662;23.402;2024-03-29T05:44:57;95506.00;;;15.32;42.05
13029;BME280;6581;42.662;23.402;2024-03-29T05:47:22;95516.28;;;15.40;41.76
13029;BME280;6581;42.662;23.402;2024-03-29T05:49:48;95506.94;;;15.51;41.73
13029;BME280;6581;42.662;23.402;2024-03-29T05:52:14;95503.63;;;15.54;42.22
13029;BME280;6581;42.662;23.402;2024-03-29T05:54:42;95503.84;;;15.58;41.75
13029;BME280;6581;42.662;23.402;2024-03-29T05:57:09;95506.69;;;15.71;41.33
13029;BME280;6581;42.662;23.402;2024-03-29T05:59:34;95508.31;;;15.72;41.23
13029;BME280;6581;42.662;23.402;2024-03-29T06:02:00;95514.22;;;15.79;41.10
13029;BME280;6581;42.662;23.402;2024-03-29T06:04:26;95517.34;;;15.91;40.91
13029;BME280;6581;42.662;23.402;2024-03-29T06:07:04;95516.16;;;15.97;40.74
13029;BME280;6581;42.662;23.402;2024-03-29T06:09:30;95515.59;;;16.01;40.80
13029;BME280;6581;42.662;23.402;2024-03-29T06:11:58;95527.06;;;15.97;40.78
13029;BME280;6581;42.662;23.402;2024-03-29T06:14:24;95509.69;;;15.93;40.62
13029;BME280;6581;42.662;23.402;2024-03-29T06:17:08;95515.47;;;16.11;40.58
13029;BME280;6581;42.662;23.402;2024-03-29T06:19:54;95532.97;;;16.05;40.32
13029;BME280;6581;42.662;23.402;2024-03-29T06:22:24;95534.16;;;15.98;41.69
13029;BME280;6581;42.662;23.402;2024-03-29T06:24:52;95528.41;;;16.19;41.48
13029;BME280;6581;42.662;23.402;2024-03-29T06:27:19;95524.28;;;16.03;40.65
13029;BME280;6581;42.662;23.402;2024-03-29T06:29:46;95527.97;;;16.12;40.09
13029;BME280;6581;42.662;23.402;2024-03-29T06:32:11;95527.13;;;16.35;39.75
13029;BME280;6581;42.662;23.402;2024-03-29T06:34:37;95533.34;;;16.59;39.83
13029;BME280;6581;42.662;23.402;2024-03-29T06:37:02;95527.41;;;16.52;39.55
13029;BME280;6581;42.662;23.402;2024-03-29T06:39:28;95534.13;;;16.41;39.68
13029;BME280;6581;42.662;23.402;2024-03-29T06:41:54;95540.75;;;16.72;39.79
13029;BME280;6581;42.662;23.402;2024-03-29T06:44:19;95545.25;;;16.44;40.74
13029;BME280;6581;42.662;23.402;2024-03-29T06:46:49;95540.88;;;16.67;40.61
13029;BME280;6581;42.662;23.402;2024-03-29T06:49:14;95539.72;;;16.68;41.33
13029;BME280;6581;42.662;23.402;2024-03-29T06:51:40;95551.34;;;16.60;41.58
13029;BME280;6581;42.662;23.402;2024-03-29T06:54:06;95548.06;;;16.39;42.32
13029;BME280;6581;42.662;23.402;2024-03-29T06:56:31;95545.44;;;17.04;40.76
13029;BME280;6581;42.662;23.402;2024-03-29T06:58:57;95531.06;;;16.98;40.51
13029;BME280;6581;42.662;23.402;2024-03-29T07:01:23;95533.22;;;16.83;40.83
13029;BME280;6581;42.662;23.402;2024-03-29T07:03:49;95532.84;;;17.22;39.85
13029;BME280;6581;42.662;23.402;2024-03-29T07:06:14;95549.13;;;17.13;39.54
13029;BME280;6581;42.662;23.402;2024-03-29T07:08:40;95548.97;;;17.37;38.92
13029;BME280;6581;42.662;23.402;2024-03-29T07:11:05;95544.53;;;17.41;39.26
13029;BME280;6581;42.662;23.402;2024-03-29T07:13:31;95546.22;;;17.69;38.24
13029;BME280;6581;42.662;23.402;2024-03-29T07:16:00;95553.69;;;17.77;39.41
13029;BME280;6581;42.662;23.402;2024-03-29T07:18:26;95553.69;;;17.64;37.67
13029;BME280;6581;42.662;23.402;2024-03-29T07:20:51;95550.19;;;17.31;38.66
13029;BME280;6581;42.662;23.402;2024-03-29T07:23:17;95544.44;;;17.46;38.55
13029;BME280;6581;42.662;23.402;2024-03-29T07:25:56;95557.84;;;17.61;37.81
13029;BME280;6581;42.662;23.402;2024-03-29T07:28:22;95552.91;;;17.90;38.08
13029;BME280;6581;42.662;23.402;2024-03-29T07:30:48;95549.84;;;17.78;37.96
13029;BME280;6581;42.662;23.402;2024-03-29T07:33:15;95555.53;;;17.68;37.76
13029;BME280;6581;42.662;23.402;2024-03-29T07:35:41;95559.56;;;17.57;37.67
13029;BME280;6581;42.662;23.402;2024-03-29T07:38:07;95560.59;;;17.61;37.54
13029;BME280;6581;42.662;23.402;2024-03-29T07:40:33;95553.09;;;18.08;37.28
13029;BME280;6581;42.662;23.402;2024-03-29T07:43:00;95545.81;;;17.89;37.43
13029;BME280;6581;42.662;23.402;2024-03-29T07:45:26;95544.94;;;18.30;36.99
13029;BME280;6581;42.662;23.402;2024-03-29T07:47:51;95547.31;;;18.72;36.49
13029;BME280;6581;42.662;23.402;2024-03-29T07:50:18;95545.47;;;18.81;35.67
13029;BME280;6581;42.662;23.402;2024-03-29T07:52:47;95544.97;;;19.02;35.67
13029;BME280;6581;42.662;23.402;2024-03-29T07:55:12;95548.06;;;18.86;34.79
13029;BME280;6581;42.662;23.402;2024-03-29T07:57:38;95550.56;;;18.96;34.73
13029;BME280;6581;42.662;23.402;2024-03-29T08:00:04;95555.06;;;19.15;34.93
13029;BME280;6581;42.662;23.402;2024-03-29T08:02:31;95552.31;;;19.15;35.15
13029;BME280;6581;42.662;23.402;2024-03-29T08:04:57;95550.59;;;19.19;34.36
13029;BME280;6581;42.662;23.402;2024-03-29T08:07:23;95544.91;;;19.60;34.21
13029;BME280;6581;42.662;23.402;2024-03-29T08:09:49;95542.94;;;19.60;33.67
13029;BME280;6581;42.662;23.402;2024-03-29T08:12:15;95542.72;;;19.79;33.23
13029;BME280;6581;42.662;23.402;2024-03-29T08:14:41;95532.84;;;19.69;33.45
13029;BME280;6581;42.662;23.402;2024-03-29T08:17:06;95534.19;;;19.80;33.55
13029;BME280;6581;42.662;23.402;2024-03-29T08:19:35;95538.69;;;19.76;34.30
13029;BME280;6581;42.662;23.402;2024-03-29T08:22:01;95528.59;;;20.03;34.57
13029;BME280;6581;42.662;23.402;2024-03-29T08:24:27;95523.50;;;20.27;33.97
13029;BME280;6581;42.662;23.402;2024-03-29T08:26:53;95516.56;;;19.73;34.00
13029;BME280;6581;42.662;23.402;2024-03-29T08:29:18;95519.47;;;20.16;34.15
13029;BME280;6581;42.662;23.402;2024-03-29T08:31:44;95521.47;;;20.41;34.02
13029;BME280;6581;42.662;23.402;2024-03-29T08:34:09;95519.25;;;20.77;33.97
13029;BME280;6581;42.662;23.402;2024-03-29T08:36:38;95525.53;;;20.69;33.84
13029;BME280;6581;42.662;23.402;2024-03-29T08:39:04;95511.00;;;20.60;33.00
13029;BME280;6581;42.662;23.402;2024-03-29T08:41:29;95516.31;;;20.48;33.16
13029;BME280;6581;42.662;23.402;2024-03-29T08:43:55;95509.34;;;20.42;34.11
13029;BME280;6581;42.662;23.402;2024-03-29T08:46:20;95510.16;;;20.34;33.51
13029;BME280;6581;42.662;23.402;2024-03-29T08:48:46;95507.44;;;20.60;32.76
13029;BME280;6581;42.662;23.402;2024-03-29T08:51:11;95503.56;;;20.52;33.78
13029;BME280;6581;42.662;23.402;2024-03-29T08:53:37;95501.00;;;20.64;33.51
13029;BME280;6581;42.662;23.402;2024-03-29T08:56:03;95510.34;;;21.06;32.59
13029;BME280;6581;42.662;23.402;2024-03-29T08:58:28;95503.06;;;21.02;32.43
13029;BME280;6581;42.662;23.402;2024-03-29T09:00:54;95496.91;;;21.30;31.95
13029;BME280;6581;42.662;23.402;2024-03-29T09:03:21;95498.38;;;21.19;32.26
13029;BME280;6581;42.662;23.402;2024-03-29T09:05:47;95487.06;;;21.04;32.27
13029;BME280;6581;42.662;23.402;2024-03-29T09:08:12;95486.09;;;21.72;31.39
13029;BME280;6581;42.662;23.402;2024-03-29T09:10:38;95479.94;;;22.13;31.10
13029;BME280;6581;42.662;23.402;2024-03-29T09:13:03;95473.69;;;21.57;31.76
13029;BME280;6581;42.662;23.402;2024-03-29T09:15:32;95469.13;;;22.08;31.88
13029;BME280;6581;42.662;23.402;2024-03-29T09:17:58;95470.25;;;22.07;31.99
13029;BME280;6581;42.662;23.402;2024-03-29T09:20:26;95463.50;;;22.25;30.59
13029;BME280;6581;42.662;23.402;2024-03-29T09:22:52;95456.34;;;22.03;32.80
13029;BME280;6581;42.662;23.402;2024-03-29T09:25:17;95456.25;;;21.82;31.14
13029;BME280;6581;42.662;23.402;2024-03-29T09:27:45;95466.50;;;21.73;31.09
13029;BME280;6581;42.662;23.402;2024-03-29T09:30:12;95459.97;;;21.86;30.62
13029;BME280;6581;42.662;23.402;2024-03-29T09:32:40;95455.09;;;21.92;29.94
13029;BME280;6581;42.662;23.402;2024-03-29T09:35:06;95439.63;;;22.37;29.71
13029;BME280;6581;42.662;23.402;2024-03-29T09:37:32;95432.03;;;22.55;29.82
13029;BME280;6581;42.662;23.402;2024-03-29T09:40:04;95427.78;;;22.37;29.90
13029;BME280;6581;42.662;23.402;2024-03-29T09:42:32;95421.19;;;22.50;29.51
13029;BME280;6581;42.662;23.402;2024-03-29T09:44:59;95419.72;;;22.73;29.46
13029;BME280;6581;42.662;23.402;2024-03-29T09:47:27;95418.00;;;22.69;29.79
13029;BME280;6581;42.662;23.402;2024-03-29T09:49:53;95417.31;;;23.05;30.54
13029;BME280;6581;42.662;23.402;2024-03-29T09:52:20;95406.56;;;22.79;30.27
13029;BME280;6581;42.662;23.402;2024-03-29T09:54:46;95405.75;;;22.78;29.51
13029;BME280;6581;42.662;23.402;2024-03-29T09:57:12;95412.22;;;22.41;30.16
13029;BME280;6581;42.662;23.402;2024-03-29T09:59:38;95402.13;;;22.66;29.22
13029;BME280;6581;42.662;23.402;2024-03-29T10:02:19;95407.09;;;22.52;30.54
13029;BME280;6581;42.662;23.402;2024-03-29T10:04:48;95408.56;;;22.70;29.28
13029;BME280;6581;42.662;23.402;2024-03-29T10:07:16;95400.09;;;22.54;29.04
13029;BME280;6581;42.662;23.402;2024-03-29T10:09:43;95403.53;;;22.72;29.60
13029;BME280;6581;42.662;23.402;2024-03-29T10:12:09;95401.72;;;22.76;29.18
13029;BME280;6581;42.662;23.402;2024-03-29T10:17:18;95401.31;;;22.65;29.00
13029;BME280;6581;42.662;23.402;2024-03-29T10:19:45;95394.97;;;22.85;29.24
13029;BME280;6581;42.662;23.402;2024-03-29T10:22:11;95396.47;;;22.62;30.71
13029;BME280;6581;42.662;23.402;2024-03-29T10:24:37;95405.91;;;22.40;30.51
13029;BME280;6581;42.662;23.402;2024-03-29T10:27:03;95397.50;;;22.90;28.10
13029;BME280;6581;42.662;23.402;2024-03-29T10:29:29;95398.69;;;22.89;28.27
13029;BME280;6581;42.662;23.402;2024-03-29T10:31:55;95396.91;;;23.18;28.67
13029;BME280;6581;42.662;23.402;2024-03-29T10:34:21;95390.59;;;22.72;29.66
13029;BME280;6581;42.662;23.402;2024-03-29T10:36:47;95386.50;;;22.90;30.54
13029;BME280;6581;42.662;23.402;2024-03-29T10:39:15;95388.63;;;22.73;29.77
13029;BME280;6581;42.662;23.402;2024-03-29T10:41:42;95385.41;;;22.71;29.58
13029;BME280;6581;42.662;23.402;2024-03-29T10:44:09;95385.41;;;22.50;30.35
13029;BME280;6581;42.662;23.402;2024-03-29T10:46:39;95375.19;;;22.71;29.52
13029;BME280;6581;42.662;23.402;2024-03-29T10:49:09;95373.25;;;22.51;30.21
13029;BME280;6581;42.662;23.402;2024-03-29T10:51:40;95377.00;;;22.26;29.78
13029;BME280;6581;42.662;23.402;2024-03-29T10:54:08;95381.59;;;22.96;29.61
13029;BME280;6581;42.662;23.402;2024-03-29T10:56:37;95377.81;;;22.68;28.97
13029;BME280;6581;42.662;23.402;2024-03-29T10:59:18;95370.06;;;22.61;29.70
13029;BME280;6581;42.662;23.402;2024-03-29T11:01:51;95375.56;;;23.15;28.91
13029;BME280;6581;42.662;23.402;2024-03-29T11:04:22;95364.44;;;22.90;28.90
13029;BME280;6581;42.662;23.402;2024-03-29T11:06:51;95363.78;;;22.94;28.46
13029;BME280;6581;42.662;23.402;2024-03-29T11:09:20;95349.56;;;23.16;28.07
13029;BME280;6581;42.662;23.402;2024-03-29T11:11:49;95364.03;;;23.13;30.17
13029;BME280;6581;42.662;23.402;2024-03-29T11:14:20;95357.34;;;22.89;29.19
13029;BME280;6581;42.662;23.402;2024-03-29T11:16:48;95358.47;;;22.88;29.17
13029;BME280;6581;42.662;23.402;2024-03-29T11:19:16;95360.41;;;22.88;30.66
13029;BME280;6581;42.662;23.402;2024-03-29T11:21:42;95361.03;;;23.06;29.41
13029;BME280;6581;42.662;23.402;2024-03-29T11:24:13;95353.50;;;23.15;29.27
13029;BME280;6581;42.662;23.402;2024-03-29T11:26:41;95351.66;;;23.31;28.29
13029;BME280;6581;42.662;23.402;2024-03-29T11:29:18;95352.13;;;23.21;29.64
13029;BME280;6581;42.662;23.402;2024-03-29T11:31:44;95347.09;;;23.59;28.54
13029;BME280;6581;42.662;23.402;2024-03-29T11:34:12;95350.66;;;23.48;28.12
13029;BME280;6581;42.662;23.402;2024-03-29T11:36:39;95347.03;;;23.23;28.07
13029;BME280;6581;42.662;23.402;2024-03-29T11:39:05;95354.41;;;23.31;28.11
13029;BME280;6581;42.662;23.402;2024-03-29T11:41:30;95354.56;;;23.59;29.20
13029;BME280;6581;42.662;23.402;2024-03-29T11:43:57;95342.38;;;23.72;28.41
13029;BME280;6581;42.662;23.402;2024-03-29T11:46:24;95345.94;;;23.72;28.82
13029;BME280;6581;42.662;23.402;2024-03-29T11:48:50;95344.56;;;23.54;28.70
13029;BME280;6581;42.662;23.402;2024-03-29T11:51:21;95342.25;;;23.32;30.05
13029;BME280;6581;42.662;23.402;2024-03-29T11:53:49;95338.09;;;23.38;29.35
13029;BME280;6581;42.662;23.402;2024-03-29T11:56:17;95334.16;;;24.00;28.33
13029;BME280;6581;42.662;23.402;2024-03-29T11:58:42;95333.78;;;23.49;28.46
13029;BME280;6581;42.662;23.402;2024-03-29T12:01:08;95334.91;;;23.48;28.41
13029;BME280;6581;42.662;23.402;2024-03-29T12:03:40;95329.16;;;23.65;29.24
13029;BME280;6581;42.662;23.402;2024-03-29T12:06:06;95320.78;;;23.74;28.20
13029;BME280;6581;42.662;23.402;2024-03-29T12:08:36;95321.97;;;24.01;29.06
13029;BME280;6581;42.662;23.402;2024-03-29T12:11:02;95314.78;;;23.84;28.15
13029;BME280;6581;42.662;23.402;2024-03-29T12:13:29;95326.84;;;23.92;29.26
13029;BME280;6581;42.662;23.402;2024-03-29T12:15:55;95329.16;;;23.41;28.84
13029;BME280;6581;42.662;23.402;2024-03-29T12:18:22;95319.84;;;23.70;29.22
13029;BME280;6581;42.662;23.402;2024-03-29T12:20:49;95324.03;;;24.04;29.88
13029;BME280;6581;42.662;23.402;2024-03-29T12:23:16;95318.19;;;23.93;29.48
13029;BME280;6581;42.662;23.402;2024-03-29T12:25:42;95320.34;;;24.00;28.62
13029;BME280;6581;42.662;23.402;2024-03-29T12:28:10;95328.00;;;23.54;29.65
13029;BME280;6581;42.662;23.402;2024-03-29T12:30:37;95317.16;;;23.85;29.57
13029;BME280;6581;42.662;23.402;2024-03-29T12:33:08;95317.78;;;23.55;29.39
13029;BME280;6581;42.662;23.402;2024-03-29T12:35:35;95320.91;;;23.53;29.18
13029;BME280;6581;42.662;23.402;2024-03-29T12:38:02;95310.75;;;23.69;29.62
13029;BME280;6581;42.662;23.402;2024-03-29T12:40:29;95321.03;;;24.21;29.22
13029;BME280;6581;42.662;23.402;2024-03-29T12:42:57;95311.00;;;24.56;27.89
13029;BME280;6581;42.662;23.402;2024-03-29T12:45:24;95307.69;;;24.51;28.60
13029;BME280;6581;42.662;23.402;2024-03-29T12:47:50;95306.13;;;24.65;28.86
13029;BME280;6581;42.662;23.402;2024-03-29T12:52:47;95307.91;;;24.30;28.58
13029;BME280;6581;42.662;23.402;2024-03-29T12:55:13;95307.22;;;24.76;29.56
13029;BME280;6581;42.662;23.402;2024-03-29T12:57:39;95300.34;;;25.14;28.58
13029;BME280;6581;42.662;23.402;2024-03-29T13:00:08;95299.78;;;25.24;28.77
13029;BME280;6581;42.662;23.402;2024-03-29T13:02:38;95306.38;;;24.60;28.87